RYR21DB EICK-LERS
Flight info
| Callsign | RYR21DB |
|---|---|
| Flight time | N/A |
| Altitude | 37000 |
| Route | TALIG DCT KEREB DCT NENEM DCT BLV DCT PPN DCT POSSY |
| Aircraft | B738/M-SDE2E3FGHIRWXY/LB1 |
Departure
| Time | 2026-05-01 14:59 |
|---|---|
| Airport | Cork International Airport (EICK) |
Arrival
| Time | N/A |
|---|---|
| Airport | Reus Airport (LERS) |
| Time | Latitude | Longitude | Altitude | Speed | Heading |
|---|---|---|---|---|---|
| 2026-05-01 14:34 | 51.84847 | -8.49055 | 502 ft | 0 kts | 70° |
| 2026-05-01 14:52 | 51.84843 | -8.49076 | 502 ft | 2 kts | 70° |
| 2026-05-01 14:52 | 51.84837 | -8.49101 | 502 ft | 2 kts | 70° |
| 2026-05-01 14:52 | 51.84826 | -8.49151 | 502 ft | 2 kts | 69° |
| 2026-05-01 14:53 | 51.84819 | -8.49176 | 502 ft | 2 kts | 66° |
| 2026-05-01 14:53 | 51.84812 | -8.49200 | 502 ft | 2 kts | 50° |
| 2026-05-01 14:53 | 51.84801 | -8.49210 | 502 ft | 1 kts | 348° |
| 2026-05-01 14:53 | 51.84800 | -8.49210 | 502 ft | 0 kts | 348° |
| 2026-05-01 14:56 | 51.84801 | -8.49210 | 502 ft | 1 kts | 348° |
| 2026-05-01 14:56 | 51.84831 | -8.49220 | 502 ft | 8 kts | 348° |
| 2026-05-01 14:56 | 51.84904 | -8.49257 | 502 ft | 13 kts | 343° |
| 2026-05-01 14:56 | 51.85006 | -8.49303 | 502 ft | 17 kts | 341° |
| 2026-05-01 14:57 | 51.85113 | -8.49366 | 502 ft | 15 kts | 339° |
| 2026-05-01 14:57 | 51.85084 | -8.49523 | 486 ft | 11 kts | 205° |
| 2026-05-01 14:57 | 51.85002 | -8.49583 | 485 ft | 14 kts | 204° |
| 2026-05-01 14:58 | 51.84931 | -8.49581 | 488 ft | 0 kts | 161° |
| 2026-05-01 14:58 | 51.84923 | -8.49576 | 485 ft | 4 kts | 160° |
| 2026-05-01 14:58 | 51.84867 | -8.49544 | 486 ft | 12 kts | 160° |
| 2026-05-01 14:58 | 51.84582 | -8.49378 | 490 ft | 80 kts | 160° |
| 2026-05-01 14:59 | 51.83842 | -8.48939 | 490 ft | 141 kts | 160° |
| 2026-05-01 14:59 | 51.82889 | -8.48393 | 1163 ft | 145 kts | 162° |
| 2026-05-01 14:59 | 51.81962 | -8.47779 | 1946 ft | 154 kts | 151° |
| 2026-05-01 14:59 | 51.81066 | -8.46601 | 2419 ft | 178 kts | 142° |
| 2026-05-01 15:00 | 51.78944 | -8.43769 | 3352 ft | 206 kts | 144° |
| 2026-05-01 15:00 | 51.77809 | -8.42297 | 3885 ft | 218 kts | 145° |
| 2026-05-01 15:00 | 51.76531 | -8.40666 | 4144 ft | 246 kts | 144° |
| 2026-05-01 15:01 | 51.75169 | -8.38939 | 4825 ft | 256 kts | 145° |
| 2026-05-01 15:01 | 51.73748 | -8.37148 | 5645 ft | 260 kts | 145° |
| 2026-05-01 15:01 | 51.72306 | -8.35340 | 6468 ft | 264 kts | 145° |
| 2026-05-01 15:01 | 51.70843 | -8.33517 | 7285 ft | 266 kts | 146° |
| 2026-05-01 15:02 | 51.69376 | -8.31695 | 8150 ft | 266 kts | 146° |
| 2026-05-01 15:02 | 51.68400 | -8.30488 | 8685 ft | 268 kts | 146° |
| 2026-05-01 15:02 | 51.66406 | -8.28031 | 9746 ft | 271 kts | 147° |
| 2026-05-01 15:02 | 51.64890 | -8.26169 | 10483 ft | 276 kts | 147° |
| 2026-05-01 15:03 | 51.63301 | -8.24228 | 10698 ft | 299 kts | 147° |
| 2026-05-01 15:03 | 51.61602 | -8.22160 | 10869 ft | 321 kts | 146° |
| 2026-05-01 15:03 | 51.59768 | -8.19927 | 11042 ft | 342 kts | 146° |
| 2026-05-01 15:03 | 51.57820 | -8.17556 | 11301 ft | 358 kts | 146° |
| 2026-05-01 15:04 | 51.55814 | -8.15110 | 11867 ft | 363 kts | 146° |
| 2026-05-01 15:04 | 51.53811 | -8.12665 | 12537 ft | 366 kts | 146° |
| 2026-05-01 15:04 | 51.51753 | -8.10158 | 13255 ft | 369 kts | 146° |
| 2026-05-01 15:04 | 51.49697 | -8.07658 | 13958 ft | 372 kts | 147° |
| 2026-05-01 15:05 | 51.47622 | -8.05142 | 14588 ft | 376 kts | 147° |
| 2026-05-01 15:05 | 51.45527 | -8.02603 | 15256 ft | 378 kts | 147° |
| 2026-05-01 15:05 | 51.43414 | -8.00048 | 15912 ft | 382 kts | 147° |
| 2026-05-01 15:05 | 51.41308 | -7.97505 | 16539 ft | 385 kts | 147° |
| 2026-05-01 15:06 | 51.39153 | -7.94906 | 17168 ft | 389 kts | 147° |
| 2026-05-01 15:06 | 51.36976 | -7.92285 | 17786 ft | 392 kts | 147° |
| 2026-05-01 15:06 | 51.34790 | -7.89654 | 18395 ft | 396 kts | 147° |
| 2026-05-01 15:06 | 51.32738 | -7.87188 | 18908 ft | 399 kts | 147° |
| 2026-05-01 15:07 | 51.30518 | -7.84523 | 19481 ft | 400 kts | 147° |
| 2026-05-01 15:07 | 51.28281 | -7.81841 | 20054 ft | 402 kts | 147° |
| 2026-05-01 15:07 | 51.26040 | -7.79158 | 20603 ft | 404 kts | 147° |
| 2026-05-01 15:07 | 51.23790 | -7.76467 | 21119 ft | 406 kts | 147° |
| 2026-05-01 15:08 | 51.21540 | -7.73780 | 21618 ft | 409 kts | 147° |
| 2026-05-01 15:08 | 51.19252 | -7.71052 | 22121 ft | 411 kts | 147° |
| 2026-05-01 15:08 | 51.16954 | -7.68315 | 22604 ft | 413 kts | 147° |
| 2026-05-01 15:08 | 51.14641 | -7.65564 | 23072 ft | 416 kts | 147° |
| 2026-05-01 15:09 | 51.12313 | -7.62798 | 23531 ft | 419 kts | 147° |
| 2026-05-01 15:09 | 51.09971 | -7.60019 | 23934 ft | 421 kts | 147° |
| 2026-05-01 15:09 | 51.07606 | -7.57217 | 24322 ft | 423 kts | 147° |
| 2026-05-01 15:09 | 51.05242 | -7.54419 | 24716 ft | 424 kts | 147° |
| 2026-05-01 15:10 | 51.02870 | -7.51614 | 25099 ft | 426 kts | 147° |
| 2026-05-01 15:10 | 50.98089 | -7.45973 | 25827 ft | 429 kts | 147° |
| 2026-05-01 15:10 | 50.95715 | -7.43179 | 26158 ft | 431 kts | 147° |
| 2026-05-01 15:11 | 50.93297 | -7.40335 | 26494 ft | 433 kts | 147° |
| 2026-05-01 15:11 | 50.88426 | -7.34620 | 27138 ft | 436 kts | 147° |
| 2026-05-01 15:11 | 50.85985 | -7.31762 | 27449 ft | 438 kts | 147° |
| 2026-05-01 15:12 | 50.83526 | -7.28885 | 27853 ft | 437 kts | 147° |
| 2026-05-01 15:12 | 50.78696 | -7.23242 | 28867 ft | 431 kts | 147° |
| 2026-05-01 15:12 | 50.76286 | -7.20433 | 29357 ft | 429 kts | 147° |
| 2026-05-01 15:13 | 50.69090 | -7.12072 | 30602 ft | 426 kts | 148° |
| 2026-05-01 15:14 | 50.64299 | -7.06527 | 31195 ft | 427 kts | 148° |
| 2026-05-01 15:14 | 50.61898 | -7.03753 | 31512 ft | 427 kts | 148° |
| 2026-05-01 15:14 | 50.57147 | -6.98273 | 32160 ft | 426 kts | 148° |
| 2026-05-01 15:15 | 50.52353 | -6.92756 | 32776 ft | 426 kts | 148° |
| 2026-05-01 15:15 | 50.47553 | -6.87247 | 33390 ft | 426 kts | 148° |
| 2026-05-01 15:16 | 50.42755 | -6.81754 | 33974 ft | 426 kts | 148° |
| 2026-05-01 15:16 | 50.37981 | -6.76304 | 34457 ft | 427 kts | 148° |
| 2026-05-01 15:17 | 50.33153 | -6.70806 | 34854 ft | 429 kts | 148° |
| 2026-05-01 15:18 | 50.25891 | -6.62562 | 35483 ft | 431 kts | 148° |
| 2026-05-01 15:18 | 50.23467 | -6.59817 | 35696 ft | 431 kts | 148° |
| 2026-05-01 15:19 | 50.16168 | -6.51573 | 36292 ft | 433 kts | 148° |
| 2026-05-01 15:19 | 50.11270 | -6.46060 | 36682 ft | 434 kts | 148° |
| 2026-05-01 15:19 | 50.08815 | -6.43301 | 36883 ft | 434 kts | 148° |
| 2026-05-01 15:20 | 50.03901 | -6.37790 | 37179 ft | 437 kts | 148° |
| 2026-05-01 15:20 | 50.01416 | -6.35010 | 37171 ft | 438 kts | 148° |
| 2026-05-01 15:21 | 49.96509 | -6.29525 | 37175 ft | 435 kts | 148° |
| 2026-05-01 15:21 | 49.91598 | -6.24051 | 37182 ft | 433 kts | 148° |
| 2026-05-01 15:22 | 49.84269 | -6.15911 | 37187 ft | 431 kts | 148° |
| 2026-05-01 15:22 | 49.79395 | -6.10515 | 37201 ft | 430 kts | 148° |
| 2026-05-01 15:23 | 49.74518 | -6.05129 | 37193 ft | 431 kts | 148° |
| 2026-05-01 15:23 | 49.69633 | -5.99748 | 37195 ft | 432 kts | 148° |
| 2026-05-01 15:24 | 49.64723 | -5.94352 | 37198 ft | 433 kts | 149° |
| 2026-05-01 15:24 | 49.59800 | -5.88954 | 37199 ft | 435 kts | 148° |
| 2026-05-01 15:25 | 49.54884 | -5.83576 | 37202 ft | 436 kts | 149° |
| 2026-05-01 15:25 | 49.49769 | -5.78597 | 37191 ft | 431 kts | 159° |
| 2026-05-01 15:26 | 49.44302 | -5.74935 | 37200 ft | 431 kts | 160° |
| 2026-05-01 15:26 | 49.38803 | -5.71213 | 37195 ft | 432 kts | 160° |
| 2026-05-01 15:27 | 49.33307 | -5.67457 | 37200 ft | 432 kts | 159° |
| 2026-05-01 15:28 | 49.25065 | -5.61819 | 37199 ft | 432 kts | 160° |
| 2026-05-01 15:28 | 49.19594 | -5.58086 | 37205 ft | 432 kts | 160° |
| 2026-05-01 15:29 | 49.11341 | -5.52475 | 37202 ft | 432 kts | 160° |
| 2026-05-01 15:30 | 49.01273 | -5.45659 | 37212 ft | 432 kts | 160° |
| 2026-05-01 15:31 | 48.83890 | -5.33960 | 37213 ft | 432 kts | 160° |
| 2026-05-01 15:32 | 48.72880 | -5.26595 | 37211 ft | 432 kts | 160° |
| 2026-05-01 15:34 | 48.57271 | -5.16217 | 37216 ft | 432 kts | 160° |